Time;durP1;ratioP1;P1;durP2;ratioP2;P2;SDS_P1;SDS_P2;PMS_P1;PMS_P2;Temp;Humidity;BMP_temperature;BMP_pressure;BME280_temperature;BME280_humidity;BME280_pressure;Samples;Min_cycle;Max_cycle;Signal;HPM_P1;HPM_P2
2023/03/30 00:01:13;;;;;;;;;12.00;9.00;18.20;32.90;;;;;;111263;1242;50327;-63
2023/03/30 00:03:41;;;;;;;;;13.00;10.00;18.20;32.90;;;;;;111130;1243;49581;-63
2023/03/30 00:06:09;;;;;;;;;11.75;10.00;18.20;32.90;;;;;;111254;1243;47339;-63
2023/03/30 00:08:37;;;;;;;;;11.00;9.00;18.20;32.90;;;;;;111384;1243;56001;-62
2023/03/30 00:11:07;;;;;;;;;11.25;10.00;18.10;32.90;;;;;;111220;1243;53565;-63
2023/03/30 00:13:35;;;;;;;;;12.00;10.00;18.10;32.90;;;;;;111267;1238;49598;-62
2023/03/30 00:16:04;;;;;;;;;13.00;11.00;18.10;33.10;;;;;;111401;1245;49070;-61
2023/03/30 00:18:33;;;;;;;;;10.00;9.00;18.10;33.10;;;;;;111308;1238;45815;-63
2023/03/30 00:21:01;;;;;;;;;11.00;10.00;18.10;32.90;;;;;;111209;1243;55830;-62
2023/03/30 00:23:29;;;;;;;;;12.00;11.00;18.10;32.90;;;;;;111232;1243;54098;-63
2023/03/30 00:25:55;;;;;;;;;11.00;10.00;18.00;32.80;;;;;;111204;1240;49082;-62
2023/03/30 00:28:24;;;;;;;;;11.00;9.00;18.10;33.10;;;;;;111197;1238;49232;-64
2023/03/30 00:30:52;;;;;;;;;12.00;10.00;18.00;33.00;;;;;;111282;1239;45007;-63
2023/03/30 00:33:20;;;;;;;;;11.00;10.00;18.00;32.80;;;;;;111253;1243;55436;-62
2023/03/30 00:35:57;;;;;;;;;11.00;9.00;18.00;32.80;;;;;;111382;1241;54031;-64
2023/03/30 00:38:27;;;;;;;;;10.33;9.00;18.00;32.80;;;;;;111414;1243;50059;-64
2023/03/30 00:40:56;;;;;;;;;12.00;11.00;18.00;33.00;;;;;;111221;1239;49774;-63
2023/03/30 00:43:24;;;;;;;;;11.00;9.25;18.00;32.80;;;;;;111205;1238;45620;-62
2023/03/30 00:45:51;;;;;;;;;11.00;9.00;18.00;32.80;;;;;;111215;1238;55660;-62
2023/03/30 00:48:33;;;;;;;;;11.00;9.33;18.00;32.80;;;;;;111143;1242;54609;-62
2023/03/30 00:51:09;;;;;;;;;10.00;9.00;17.90;32.70;;;;;;111211;1244;49467;-62
2023/03/30 00:53:42;;;;;;;;;10.00;8.00;17.90;32.70;;;;;;111144;1241;49096;-62
2023/03/30 00:56:11;;;;;;;;;10.00;9.00;17.90;32.70;;;;;;111174;1240;45974;-62
2023/03/30 00:58:40;;;;;;;;;11.00;9.25;17.90;32.70;;;;;;111192;1243;55761;-61
2023/03/30 01:01:10;;;;;;;;;11.67;10.33;17.90;32.70;;;;;;111279;1243;53788;-62
2023/03/30 01:03:45;;;;;;;;;14.50;11.00;17.90;33.20;;;;;;111304;1238;49864;-61
2023/03/30 01:06:16;;;;;;;;;11.00;10.00;17.90;32.70;;;;;;111297;1243;49227;-63
2023/03/30 01:08:44;;;;;;;;;10.50;9.00;17.90;32.70;;;;;;111209;1243;45511;-63
2023/03/30 01:11:11;;;;;;;;;11.00;9.75;17.80;32.60;;;;;;111209;1238;55808;-63
2023/03/30 01:13:43;;;;;;;;;12.00;9.75;17.80;32.60;;;;;;111267;1238;54583;-62
2023/03/30 01:16:45;;;;;;;;;10.25;8.00;17.80;32.80;;;;;;111183;1238;50582;-62
2023/03/30 01:19:30;;;;;;;;;13.50;10.50;17.80;32.60;;;;;;111243;1243;49597;-62
2023/03/30 01:22:17;;;;;;;;;12.00;10.00;17.80;32.80;;;;;;111325;1243;45967;-62
2023/03/30 01:25:09;;;;;;;;;10.50;8.50;17.80;32.60;;;;;;111295;1243;55420;-62
2023/03/30 01:27:44;;;;;;;;;12.50;10.50;17.80;32.60;;;;;;111301;1240;54138;-62
2023/03/30 01:30:20;;;;;;;;;13.75;10.50;17.80;32.60;;;;;;111221;1238;49321;-62
2023/03/30 01:32:54;;;;;;;;;11.00;9.50;17.70;32.50;;;;;;111349;1239;49218;-62
2023/03/30 01:35:37;;;;;;;;;11.00;9.25;17.70;32.60;;;;;;111198;1238;45476;-63
2023/03/30 01:38:32;;;;;;;;;13.00;11.25;17.70;32.50;;;;;;111179;1238;56091;-65
2023/03/30 01:41:13;;;;;;;;;11.00;10.00;17.70;32.50;;;;;;111195;1238;53788;-62
2023/03/30 01:43:55;;;;;;;;;13.50;10.00;17.70;32.50;;;;;;111152;1243;49236;-62
2023/03/30 01:46:54;;;;;;;;;11.00;9.50;17.70;32.50;;;;;;111177;1243;48809;-62
2023/03/30 01:49:48;;;;;;;;;10.75;9.50;17.70;32.70;;;;;;111234;1241;45978;-63
2023/03/30 01:52:40;;;;;;;;;10.00;9.00;17.70;32.60;;;;;;111293;1243;57251;-62
2023/03/30 01:55:09;;;;;;;;;11.00;9.00;17.70;32.40;;;;;;111225;1238;53650;-62
2023/03/30 01:57:41;;;;;;;;;11.00;9.75;17.70;32.40;;;;;;111192;1238;49509;-62
2023/03/30 02:00:12;;;;;;;;;11.50;10.00;17.70;32.40;;;;;;111153;1243;49394;-62
2023/03/30 02:02:44;;;;;;;;;12.50;11.00;17.70;32.70;;;;;;111207;1238;46185;-62
2023/03/30 02:05:16;;;;;;;;;12.25;10.00;17.60;32.40;;;;;;111206;1242;55793;-62
2023/03/30 02:07:49;;;;;;;;;11.00;9.00;17.60;32.40;;;;;;111165;1238;54083;-62
2023/03/30 02:10:19;;;;;;;;;11.50;10.00;17.60;32.40;;;;;;111224;1243;49051;-61
2023/03/30 02:12:46;;;;;;;;;12.00;10.25;17.60;32.40;;;;;;111177;1244;49975;-62
2023/03/30 02:15:15;;;;;;;;;11.00;9.00;17.60;32.40;;;;;;111093;1239;46134;-63
2023/03/30 02:17:44;;;;;;;;;13.50;10.00;17.60;32.60;;;;;;111196;1238;55834;-63
2023/03/30 02:20:12;;;;;;;;;11.50;10.00;17.50;32.40;;;;;;111214;1242;53950;-63
2023/03/30 02:22:39;;;;;;;;;10.25;8.50;17.50;32.60;;;;;;111224;1238;49215;-64
2023/03/30 02:25:07;;;;;;;;;11.50;10.25;17.50;32.50;;;;;;111159;1238;49823;-66
2023/03/30 02:27:36;;;;;;;;;10.00;8.50;17.50;32.40;;;;;;111243;1239;45320;-65
2023/03/30 02:30:06;;;;;;;;;11.00;9.67;17.50;32.60;;;;;;111208;1241;54949;-65
2023/03/30 02:32:42;;;;;;;;;12.33;9.67;17.50;32.50;;;;;;111333;1238;53579;-64
2023/03/30 02:35:34;;;;;;;;;13.50;11.00;17.50;32.50;;;;;;111316;1238;50580;-63
2023/03/30 02:38:22;;;;;;;;;11.50;10.00;17.50;32.70;;;;;;111272;1243;49192;-62
2023/03/30 02:40:57;;;;;;;;;11.50;10.00;17.40;32.90;;;;;;111259;1244;46014;-64
2023/03/30 02:43:37;;;;;;;;;11.50;9.50;17.40;32.40;;;;;;111390;1238;56651;-66
2023/03/30 02:46:05;;;;;;;;;14.50;10.25;17.40;32.60;;;;;;111363;1238;54797;-63
2023/03/30 02:48:48;;;;;;;;;11.50;9.00;17.40;32.40;;;;;;111157;1242;50391;-63
2023/03/30 02:51:20;;;;;;;;;12.50;10.25;17.40;32.20;;;;;;111199;1238;49962;-61
2023/03/30 02:53:52;;;;;;;;;10.67;9.00;17.40;32.40;;;;;;111164;1243;45744;-63
2023/03/30 02:56:25;;;;;;;;;11.00;9.00;17.40;32.60;;;;;;111163;1243;56043;-63
2023/03/30 02:58:53;;;;;;;;;11.00;9.00;17.40;32.50;;;;;;111203;1244;54303;-63
2023/03/30 03:01:31;;;;;;;;;11.00;9.25;17.40;32.30;;;;;;111261;1241;49777;-63
2023/03/30 03:04:00;;;;;;;;;11.00;10.00;17.40;32.60;;;;;;111318;1243;49807;-64
2023/03/30 03:06:28;;;;;;;;;14.67;11.00;17.40;32.50;;;;;;111190;1243;45882;-63
2023/03/30 03:08:55;;;;;;;;;11.00;10.00;17.40;32.30;;;;;;111228;1242;55481;-62
2023/03/30 03:11:22;;;;;;;;;10.50;9.25;17.40;32.30;;;;;;111200;1238;54084;-62
2023/03/30 03:13:50;;;;;;;;;13.75;11.00;17.40;32.30;;;;;;111188;1244;49281;-63
2023/03/30 03:16:17;;;;;;;;;10.00;9.00;17.30;32.20;;;;;;111209;1243;49952;-62
2023/03/30 03:18:44;;;;;;;;;13.67;10.33;17.30;32.20;;;;;;111167;1238;45208;-62
2023/03/30 03:21:12;;;;;;;;;15.00;10.00;17.30;32.20;;;;;;111218;1243;55717;-62
2023/03/30 03:23:40;;;;;;;;;11.25;9.50;17.30;32.30;;;;;;111218;1240;55024;-63
2023/03/30 03:26:07;;;;;;;;;12.75;9.25;17.30;32.30;;;;;;111182;1243;49645;-63
2023/03/30 03:28:35;;;;;;;;;11.00;9.75;17.30;32.20;;;;;;111196;1238;49225;-62
2023/03/30 03:31:02;;;;;;;;;10.00;8.67;17.30;32.30;;;;;;111362;1238;45706;-62
2023/03/30 03:33:30;;;;;;;;;11.67;10.00;17.20;32.40;;;;;;111317;1243;55773;-63
2023/03/30 03:35:59;;;;;;;;;11.75;10.50;17.20;32.20;;;;;;111127;1240;53865;-63
2023/03/30 03:38:26;;;;;;;;;12.75;10.25;17.20;32.20;;;;;;111388;1243;49614;-62
2023/03/30 03:40:55;;;;;;;;;16.00;12.50;17.20;32.20;;;;;;111281;1240;48967;-62
2023/03/30 03:43:23;;;;;;;;;12.25;10.00;17.20;32.20;;;;;;111170;1243;45915;-62
2023/03/30 03:45:50;;;;;;;;;12.75;9.75;17.20;32.20;;;;;;111180;1243;55840;-62
2023/03/30 03:48:21;;;;;;;;;12.50;10.50;17.20;32.20;;;;;;111125;1240;53487;-62
2023/03/30 03:50:53;;;;;;;;;15.25;10.50;17.20;32.20;;;;;;111317;1243;49423;-63
2023/03/30 03:53:21;;;;;;;;;12.50;11.00;17.20;32.20;;;;;;111183;1238;49695;-62
2023/03/30 03:55:47;;;;;;;;;9.50;8.25;17.20;32.20;;;;;;111211;1244;46131;-61
2023/03/30 03:58:15;;;;;;;;;47.67;33.33;17.20;32.20;;;;;;111182;1238;56469;-62
2023/03/30 04:00:42;;;;;;;;;41.00;32.25;17.20;40.10;;;;;;111190;1239;54382;-62
2023/03/30 04:03:11;;;;;;;;;48.25;31.25;17.20;39.70;;;;;;111565;1238;49779;-64
2023/03/30 04:05:38;;;;;;;;;42.67;30.67;17.30;38.80;;;;;;111183;1241;49805;-66
2023/03/30 04:08:09;;;;;;;;;36.00;24.00;17.40;38.40;;;;;;111143;1241;45483;-61
2023/03/30 04:10:37;;;;;;;;;38.25;29.00;17.40;41.00;;;;;;111183;1243;55851;-61
2023/03/30 04:13:04;;;;;;;;;34.50;27.00;17.60;41.50;;;;;;111180;1243;54071;-61
2023/03/30 04:15:32;;;;;;;;;40.00;28.25;17.80;41.50;;;;;;111139;1243;49388;-60
2023/03/30 04:18:00;;;;;;;;;44.00;27.50;18.00;41.50;;;;;;111310;1238;49699;-60
2023/03/30 04:20:28;;;;;;;;;36.50;25.75;18.20;41.70;;;;;;111194;1242;46147;-61
2023/03/30 04:22:56;;;;;;;;;37.50;24.75;18.30;40.60;;;;;;111421;1238;55042;-61
2023/03/30 04:25:27;;;;;;;;;32.25;24.00;18.50;40.20;;;;;;111315;1243;55131;-61
2023/03/30 04:27:55;;;;;;;;;41.00;28.50;18.70;39.90;;;;;;111186;1243;48856;-61
2023/03/30 04:30:23;;;;;;;;;39.75;24.75;18.90;40.80;;;;;;111189;1238;49106;-61
2023/03/30 04:33:01;;;;;;;;;45.33;26.67;19.00;40.70;;;;;;110897;1240;46493;-61
2023/03/30 04:35:30;;;;;;;;;35.67;23.00;19.10;40.90;;;;;;111173;1239;55609;-62
2023/03/30 04:37:57;;;;;;;;;27.00;21.67;19.30;40.10;;;;;;111267;1242;53400;-61
2023/03/30 04:40:24;;;;;;;;;29.00;23.67;19.40;40.00;;;;;;111199;1243;49621;-61
2023/03/30 04:42:51;;;;;;;;;26.50;22.50;19.50;39.90;;;;;;111017;1238;49325;-60
2023/03/30 04:45:19;;;;;;;;;38.75;24.75;19.60;40.30;;;;;;111181;1239;46014;-60
2023/03/30 04:47:46;;;;;;;;;34.33;23.00;19.60;39.90;;;;;;111278;1241;55991;-61
2023/03/30 04:50:14;;;;;;;;;32.00;23.25;19.70;39.90;;;;;;111142;1243;53412;-61
2023/03/30 04:52:40;;;;;;;;;28.50;19.75;19.70;39.50;;;;;;110957;1238;50169;-61
2023/03/30 04:55:08;;;;;;;;;28.50;21.00;19.70;38.90;;;;;;111216;1243;49812;-60
2023/03/30 04:57:35;;;;;;;;;23.00;18.00;19.60;38.30;;;;;;111184;1243;45276;-61
2023/03/30 05:00:08;;;;;;;;;22.25;18.75;19.60;37.50;;;;;;111144;1242;55685;-61
2023/03/30 05:02:35;;;;;;;;;33.00;19.50;19.50;37.60;;;;;;110971;1244;54742;-61
2023/03/30 05:05:03;;;;;;;;;26.25;22.25;19.40;37.20;;;;;;111111;1238;49542;-60
2023/03/30 05:07:30;;;;;;;;;22.75;19.75;19.40;37.00;;;;;;111067;1243;49169;-61
2023/03/30 05:09:57;;;;;;;;;29.00;20.25;19.30;36.70;;;;;;111103;1243;45918;-61
2023/03/30 05:12:24;;;;;;;;;23.00;19.00;19.20;36.60;;;;;;110957;1244;55554;-60
2023/03/30 05:14:50;;;;;;;;;22.75;18.00;19.10;36.30;;;;;;111100;1243;54217;-60
2023/03/30 05:17:17;;;;;;;;;22.75;19.00;19.00;36.70;;;;;;111093;1240;49299;-60
2023/03/30 05:19:45;;;;;;;;;21.25;16.00;18.90;36.00;;;;;;111132;1244;49350;-60
2023/03/30 05:22:13;;;;;;;;;21.67;20.00;18.90;35.90;;;;;;111137;1240;46040;-60
2023/03/30 05:24:40;;;;;;;;;24.75;20.25;18.80;35.80;;;;;;111231;1243;54982;-60
2023/03/30 05:27:07;;;;;;;;;20.00;17.00;18.70;35.50;;;;;;111093;1243;54805;-60
2023/03/30 05:29:34;;;;;;;;;22.00;14.00;18.60;35.40;;;;;;111132;1238;49478;-59
2023/03/30 05:32:01;;;;;;;;;24.00;16.50;18.60;35.50;;;;;;111164;1238;49713;-60
2023/03/30 05:34:28;;;;;;;;;25.50;17.50;18.50;35.30;;;;;;111257;1239;45982;-61
2023/03/30 05:36:55;;;;;;;;;22.50;16.00;18.40;35.00;;;;;;111181;1238;55324;-61
2023/03/30 05:39:22;;;;;;;;;23.75;20.25;18.30;34.90;;;;;;111257;1238;53284;-61
2023/03/30 05:41:49;;;;;;;;;16.50;13.25;18.30;35.00;;;;;;111139;1243;49909;-60
2023/03/30 05:44:17;;;;;;;;;17.00;15.00;18.30;34.80;;;;;;111137;1238;49550;-60
2023/03/30 05:46:44;;;;;;;;;21.25;15.75;18.30;34.90;;;;;;111134;1238;45526;-60
2023/03/30 05:49:11;;;;;;;;;21.75;19.00;18.20;34.50;;;;;;111165;1242;56036;-60
2023/03/30 05:51:38;;;;;;;;;17.00;14.50;18.20;34.40;;;;;;111153;1238;54910;-60
2023/03/30 05:54:05;;;;;;;;;21.50;18.00;18.20;34.30;;;;;;111177;1238;49778;-60
2023/03/30 05:56:32;;;;;;;;;20.50;15.75;18.20;34.20;;;;;;111117;1239;49355;-61
2023/03/30 05:58:59;;;;;;;;;21.00;17.25;18.20;34.20;;;;;;111172;1242;45232;-61
2023/03/30 06:01:26;;;;;;;;;22.00;18.50;18.10;34.00;;;;;;111198;1243;55738;-61
2023/03/30 06:03:53;;;;;;;;;25.25;20.50;18.10;34.00;;;;;;111205;1238;54320;-61
2023/03/30 06:06:20;;;;;;;;;22.33;17.33;18.00;34.00;;;;;;111185;1240;49494;-61
2023/03/30 06:08:48;;;;;;;;;21.00;17.50;18.00;34.20;;;;;;111177;1243;48809;-60
2023/03/30 06:11:15;;;;;;;;;25.00;18.00;18.00;34.10;;;;;;111223;1238;46510;-60
2023/03/30 06:13:41;;;;;;;;;20.75;16.25;17.90;33.80;;;;;;111374;1243;55455;-61
2023/03/30 06:16:08;;;;;;;;;27.00;19.00;17.90;33.80;;;;;;111277;1243;53865;-60
2023/03/30 06:18:35;;;;;;;;;21.50;17.50;17.90;33.80;;;;;;111205;1243;49545;-60
2023/03/30 06:21:07;;;;;;;;;22.67;16.00;17.80;33.70;;;;;;111146;1239;49822;-60
2023/03/30 06:23:36;;;;;;;;;16.75;14.25;17.80;33.70;;;;;;111121;1241;45530;-61
2023/03/30 06:26:03;;;;;;;;;22.50;19.00;17.80;33.80;;;;;;111137;1238;56587;-60
2023/03/30 06:28:30;;;;;;;;;20.75;18.25;17.90;33.70;;;;;;111174;1243;54113;-61
2023/03/30 06:31:00;;;;;;;;;19.00;16.00;17.90;33.70;;;;;;111160;1239;49275;-62
2023/03/30 06:33:27;;;;;;;;;20.25;16.50;17.90;33.50;;;;;;111056;1244;50112;-60
2023/03/30 06:35:54;;;;;;;;;22.00;16.00;17.90;33.40;;;;;;111145;1243;45472;-61
2023/03/30 06:38:22;;;;;;;;;21.75;16.00;17.90;33.40;;;;;;111143;1238;56488;-61
2023/03/30 06:40:50;;;;;;;;;17.50;14.50;17.90;33.30;;;;;;111202;1239;54309;-60
2023/03/30 06:43:22;;;;;;;;;18.25;16.00;17.90;33.50;;;;;;111243;1241;50535;-60
2023/03/30 06:45:54;;;;;;;;;20.67;17.33;17.90;33.20;;;;;;111354;1243;48964;-61
2023/03/30 06:48:23;;;;;;;;;20.25;18.25;17.90;33.20;;;;;;111217;1243;45774;-61
2023/03/30 06:50:51;;;;;;;;;20.67;16.67;17.90;32.60;;;;;;111365;1238;55712;-60
2023/03/30 06:53:19;;;;;;;;;15.00;13.50;18.00;33.30;;;;;;111164;1243;53739;-61
2023/03/30 06:55:51;;;;;;;;;20.00;18.33;18.00;33.10;;;;;;111211;1242;49686;-60
2023/03/30 06:58:18;;;;;;;;;17.25;16.00;18.00;33.00;;;;;;111113;1240;49611;-60
2023/03/30 07:00:45;;;;;;;;;17.50;15.00;18.00;32.90;;;;;;111258;1243;46036;-60
2023/03/30 07:03:13;;;;;;;;;22.50;20.00;18.00;32.90;;;;;;111135;1241;55470;-61
2023/03/30 07:05:40;;;;;;;;;22.50;17.00;18.10;33.10;;;;;;111081;1243;53774;-61
2023/03/30 07:08:07;;;;;;;;;22.00;16.00;18.10;32.90;;;;;;111238;1241;49086;-60
2023/03/30 07:10:35;;;;;;;;;20.00;16.00;18.20;32.90;;;;;;111174;1241;50140;-60
2023/03/30 07:13:01;;;;;;;;;18.75;17.25;18.20;32.80;;;;;;111132;1239;46801;-61
2023/03/30 07:15:29;;;;;;;;;18.75;17.25;18.20;32.80;;;;;;111198;1238;56458;-61
2023/03/30 07:17:56;;;;;;;;;19.75;17.75;18.30;33.00;;;;;;111174;1238;54140;-61
2023/03/30 07:20:24;;;;;;;;;14.00;12.50;18.30;32.90;;;;;;110135;1239;1297905;-61
2023/03/30 07:22:51;;;;;;;;;20.50;15.50;18.30;33.90;;;;;;111711;1239;49658;-61
2023/03/30 07:25:18;;;;;;;;;17.00;14.00;18.50;36.30;;;;;;111431;1244;46838;-61
2023/03/30 07:27:46;;;;;;;;;17.00;15.25;18.60;36.10;;;;;;111175;1243;54984;-61
2023/03/30 07:30:14;;;;;;;;;14.00;13.00;18.70;37.60;;;;;;111125;1243;54308;-61
2023/03/30 07:32:40;;;;;;;;;19.50;16.50;18.90;38.10;;;;;;111212;1243;49592;-61
2023/03/30 07:35:08;;;;;;;;;18.50;15.50;18.90;38.10;;;;;;111322;1243;49491;-61
2023/03/30 07:37:37;;;;;;;;;18.00;15.00;19.10;38.20;;;;;;111183;1241;46191;-62
2023/03/30 07:40:09;;;;;;;;;16.00;14.25;19.20;38.00;;;;;;111511;1238;55388;-63
2023/03/30 07:42:36;;;;;;;;;21.75;16.75;19.30;37.90;;;;;;111678;1238;53695;-67
2023/03/30 07:45:04;;;;;;;;;20.00;16.00;19.40;38.00;;;;;;109087;1240;3010635;-69
2023/03/30 07:47:30;;;;;;;;;15.00;14.00;19.60;37.70;;;;;;111312;1238;49189;-66
2023/03/30 07:49:57;;;;;;;;;16.00;15.00;19.90;37.30;;;;;;111494;1243;46090;-67
2023/03/30 07:52:25;;;;;;;;;16.00;15.00;20.10;36.70;;;;;;111705;1238;55356;-67
2023/03/30 07:54:53;;;;;;;;;15.75;14.50;20.30;36.80;;;;;;111341;1239;53862;-63
2023/03/30 07:57:21;;;;;;;;;17.50;14.75;20.60;36.90;;;;;;111154;1238;49808;-64
2023/03/30 07:59:48;;;;;;;;;16.50;13.00;20.70;36.60;;;;;;111224;1243;49782;-65
2023/03/30 08:02:16;;;;;;;;;14.75;13.50;20.90;36.20;;;;;;111338;1238;46468;-64
2023/03/30 08:04:44;;;;;;;;;20.33;17.33;21.00;36.10;;;;;;111317;1243;55166;-67
2023/03/30 08:07:11;;;;;;;;;20.50;17.50;21.10;36.00;;;;;;111140;1238;53548;-62
2023/03/30 08:09:38;;;;;;;;;16.50;14.00;21.10;35.90;;;;;;111199;1243;49963;-65
2023/03/30 08:12:05;;;;;;;;;18.00;15.00;21.20;35.80;;;;;;111240;1243;49485;-61
2023/03/30 08:14:32;;;;;;;;;16.00;15.00;21.20;35.60;;;;;;111248;1244;45409;-67
2023/03/30 08:16:59;;;;;;;;;17.00;15.00;21.30;35.20;;;;;;111248;1240;56230;-63
2023/03/30 08:19:27;;;;;;;;;22.25;18.50;21.40;35.10;;;;;;111311;1238;53882;-70
2023/03/30 08:21:55;;;;;;;;;18.00;16.50;21.50;35.30;;;;;;111455;1238;49031;-68
2023/03/30 08:24:22;;;;;;;;;18.00;15.50;21.60;34.40;;;;;;111264;1243;49792;-66
2023/03/30 08:26:49;;;;;;;;;16.75;15.75;21.70;34.70;;;;;;111238;1238;45978;-66
2023/03/30 08:29:17;;;;;;;;;17.25;16.00;21.70;34.40;;;;;;111210;1243;55303;-63
2023/03/30 08:31:44;;;;;;;;;19.50;13.75;21.80;34.60;;;;;;111184;1240;53506;-66
2023/03/30 08:34:11;;;;;;;;;18.00;16.25;21.90;34.40;;;;;;111101;1241;49017;-65
2023/03/30 08:36:38;;;;;;;;;23.00;17.75;21.90;34.30;;;;;;111079;1241;49815;-65
2023/03/30 08:39:05;;;;;;;;;15.00;13.75;22.00;34.20;;;;;;111130;1244;46034;-65
2023/03/30 08:41:43;;;;;;;;;16.50;13.75;22.00;34.00;;;;;;111181;1243;56679;-64
2023/03/30 08:44:21;;;;;;;;;18.00;15.00;22.10;33.90;;;;;;111119;1240;54081;-64
2023/03/30 08:46:49;;;;;;;;;17.75;15.50;22.10;33.80;;;;;;113239;1240;49524;-64
2023/03/30 08:49:18;;;;;;;;;19.00;18.25;22.20;33.70;;;;;;111047;1246;50270;-64
2023/03/30 08:51:48;;;;;;;;;18.00;15.67;22.40;33.40;;;;;;111254;1238;45481;-64
2023/03/30 08:54:17;;;;;;;;;15.75;14.75;22.50;33.20;;;;;;111551;1238;55950;-63
2023/03/30 08:56:53;;;;;;;;;18.50;17.00;22.50;33.00;;;;;;111202;1243;53052;-64
2023/03/30 08:59:43;;;;;;;;;16.50;15.50;22.60;33.10;;;;;;111030;1243;50360;-64
2023/03/30 09:02:25;;;;;;;;;16.00;15.00;22.50;32.70;;;;;;111167;1246;50457;-65
2023/03/30 09:04:57;;;;;;;;;18.33;16.67;22.50;32.60;;;;;;111172;1240;45117;-63
2023/03/30 09:08:09;;;;;;;;;18.75;16.00;22.60;33.10;;;;;;111123;1243;56180;-63
2023/03/30 09:10:40;;;;;;;;;19.75;17.00;22.60;32.50;;;;;;111207;1238;54634;-64
2023/03/30 09:13:12;;;;;;;;;18.00;17.00;22.60;32.40;;;;;;111550;1242;50057;-64
2023/03/30 09:16:07;;;;;;;;;14.75;13.25;22.60;32.40;;;;;;111192;1238;49810;-64
2023/03/30 09:18:37;;;;;;;;;17.00;15.25;22.60;32.20;;;;;;111096;1238;45385;-63
2023/03/30 09:21:05;;;;;;;;;18.00;16.33;22.60;32.10;;;;;;111385;1238;55066;-64
2023/03/30 09:23:32;;;;;;;;;17.00;15.25;22.70;32.00;;;;;;111208;1238;53534;-63
2023/03/30 09:26:39;;;;;;;;;18.00;17.00;22.70;32.10;;;;;;111374;1243;49459;-63
2023/03/30 09:29:19;;;;;;;;;18.25;17.00;22.70;32.00;;;;;;111155;1243;49369;-63
2023/03/30 09:32:02;;;;;;;;;18.00;16.50;22.70;32.30;;;;;;111216;1240;45702;-64
2023/03/30 09:34:45;;;;;;;;;19.75;16.50;22.80;32.40;;;;;;111180;1238;55109;-62
2023/03/30 09:37:17;;;;;;;;;15.25;13.75;22.80;32.90;;;;;;111175;1239;54808;-63
2023/03/30 09:39:45;;;;;;;;;18.75;17.50;22.80;32.90;;;;;;111298;1243;49399;-65
2023/03/30 09:42:27;;;;;;;;;18.75;16.75;22.80;32.70;;;;;;111267;1242;49551;-66
2023/03/30 09:45:17;;;;;;;;;14.25;13.25;22.80;32.40;;;;;;111239;1243;46133;-65
2023/03/30 09:47:45;;;;;;;;;17.25;14.75;22.90;32.30;;;;;;111377;1240;55236;-65
2023/03/30 09:50:23;;;;;;;;;13.33;11.00;22.90;32.20;;;;;;111533;1238;54687;-66
2023/03/30 09:52:55;;;;;;;;;17.00;15.00;22.90;32.50;;;;;;111320;1243;49274;-65
2023/03/30 09:55:25;;;;;;;;;17.00;14.00;22.90;33.00;;;;;;111252;1244;50483;-65
2023/03/30 09:57:53;;;;;;;;;18.00;14.75;22.90;33.00;;;;;;111392;1238;45934;-65
2023/03/30 10:00:30;;;;;;;;;17.50;14.25;22.90;33.00;;;;;;111351;1238;55762;-66
2023/03/30 10:03:01;;;;;;;;;15.75;14.75;22.90;33.10;;;;;;111357;1243;54831;-66
2023/03/30 10:05:30;;;;;;;;;17.25;14.50;22.90;32.70;;;;;;111277;1243;49767;-65
2023/03/30 10:08:00;;;;;;;;;17.00;13.67;23.00;32.70;;;;;;111241;1239;50069;-66
2023/03/30 10:10:29;;;;;;;;;15.67;14.00;23.00;33.10;;;;;;111257;1242;45324;-63
2023/03/30 10:13:11;;;;;;;;;15.25;12.75;23.00;32.20;;;;;;111205;1244;55236;-64
2023/03/30 10:15:40;;;;;;;;;12.25;11.25;23.00;32.60;;;;;;111152;1243;53630;-64
2023/03/30 10:18:28;;;;;;;;;16.67;12.33;23.00;32.60;;;;;;111287;1240;49810;-65
2023/03/30 10:21:06;;;;;;;;;13.75;12.75;23.10;32.50;;;;;;111143;1243;50497;-63
2023/03/30 10:23:38;;;;;;;;;17.75;15.00;23.10;32.30;;;;;;111275;1243;46375;-65
2023/03/30 10:26:14;;;;;;;;;16.75;15.00;23.10;32.50;;;;;;111194;1238;55400;-64
2023/03/30 10:28:52;;;;;;;;;14.00;12.75;23.10;32.20;;;;;;111248;1243;54484;-66
2023/03/30 10:31:20;;;;;;;;;16.00;12.25;23.10;32.20;;;;;;111466;1238;49984;-66
2023/03/30 10:33:48;;;;;;;;;13.75;12.50;23.20;32.30;;;;;;111266;1241;50065;-65
2023/03/30 10:36:17;;;;;;;;;14.75;13.25;23.20;32.20;;;;;;111223;1239;46078;-65
2023/03/30 10:38:45;;;;;;;;;15.33;13.00;23.20;32.20;;;;;;111348;1240;55424;-63
2023/03/30 10:41:20;;;;;;;;;17.25;15.00;23.20;32.30;;;;;;111347;1244;53520;-64
2023/03/30 10:43:48;;;;;;;;;15.67;13.00;23.20;32.30;;;;;;111389;1243;49805;-64
2023/03/30 10:46:18;;;;;;;;;18.75;15.00;23.30;32.30;;;;;;111254;1244;50484;-64
2023/03/30 10:48:47;;;;;;;;;15.00;12.00;23.30;32.20;;;;;;111299;1243;45656;-64
2023/03/30 10:51:35;;;;;;;;;13.75;12.50;23.30;32.40;;;;;;111176;1243;55768;-66
2023/03/30 10:54:25;;;;;;;;;14.00;12.50;23.30;32.30;;;;;;111271;1240;53929;-66
2023/03/30 10:57:00;;;;;;;;;14.00;12.00;23.30;32.60;;;;;;111271;1244;50085;-65
2023/03/30 10:59:39;;;;;;;;;11.00;10.00;23.30;32.30;;;;;;111276;1243;49093;-65
2023/03/30 11:02:31;;;;;;;;;17.25;13.75;23.40;32.20;;;;;;111458;1243;45926;-67
2023/03/30 11:05:06;;;;;;;;;20.67;14.00;23.40;32.20;;;;;;111312;1239;55669;-66
2023/03/30 11:07:40;;;;;;;;;17.00;14.00;23.40;32.50;;;;;;111312;1242;54069;-67
2023/03/30 11:10:18;;;;;;;;;17.25;14.50;23.40;32.40;;;;;;111242;1243;49970;-66
2023/03/30 11:13:05;;;;;;;;;19.75;17.75;23.40;32.30;;;;;;111221;1243;50452;-67
2023/03/30 11:15:39;;;;;;;;;17.75;14.00;23.40;32.30;;;;;;111224;1239;46318;-63
2023/03/30 11:18:20;;;;;;;;;22.25;15.50;23.40;32.20;;;;;;111313;1243;55201;-63
2023/03/30 11:20:56;;;;;;;;;20.25;17.00;23.40;32.40;;;;;;111099;1242;54220;-63
2023/03/30 11:23:52;;;;;;;;;31.75;19.75;23.40;32.40;;;;;;111154;1244;49002;-65
2023/03/30 11:26:34;;;;;;;;;15.50;14.00;23.40;32.40;;;;;;111233;1238;49414;-64
2023/03/30 11:29:13;;;;;;;;;28.25;18.00;23.40;32.30;;;;;;111301;1238;45351;-66
2023/03/30 11:31:52;;;;;;;;;22.50;16.50;23.40;32.10;;;;;;111230;1243;55348;-65
2023/03/30 11:34:25;;;;;;;;;30.50;18.00;23.30;32.40;;;;;;111458;1238;53724;-70
2023/03/30 11:37:19;;;;;;;;;29.75;20.00;23.30;32.30;;;;;;111294;1240;49304;-66
2023/03/30 11:40:18;;;;;;;;;25.00;15.33;23.30;32.00;;;;;;111199;1243;48841;-67
2023/03/30 11:42:46;;;;;;;;;30.25;17.00;23.30;31.90;;;;;;111241;1238;45928;-65
2023/03/30 11:45:44;;;;;;;;;25.00;16.50;23.30;32.10;;;;;;111260;1238;56426;-61
2023/03/30 11:48:27;;;;;;;;;33.00;15.00;23.30;31.80;;;;;;111318;1242;53583;-65
2023/03/30 11:51:17;;;;;;;;;20.50;14.25;23.30;31.90;;;;;;111215;1243;49518;-64
2023/03/30 11:54:01;;;;;;;;;14.33;12.00;23.30;32.00;;;;;;110912;1238;49113;-64
2023/03/30 11:56:52;;;;;;;;;29.00;18.50;23.30;31.80;;;;;;111367;1244;46425;-67
2023/03/30 11:59:31;;;;;;;;;27.75;16.25;23.30;31.80;;;;;;111224;1243;56801;-65
2023/03/30 12:02:27;;;;;;;;;27.67;17.33;23.30;31.50;;;;;;111410;1238;54427;-61
2023/03/30 12:04:57;;;;;;;;;26.25;17.75;23.30;31.50;;;;;;111207;1244;49799;-66
2023/03/30 12:07:59;;;;;;;;;19.25;13.75;23.30;31.10;;;;;;111184;1238;48989;-64
2023/03/30 12:10:39;;;;;;;;;25.25;15.75;23.30;31.10;;;;;;111120;1240;45525;-67
2023/03/30 12:13:12;;;;;;;;;18.50;14.00;23.30;31.00;;;;;;111244;1240;55204;-65
2023/03/30 12:15:57;;;;;;;;;27.50;19.00;23.30;31.70;;;;;;111244;1238;53677;-66
2023/03/30 12:18:41;;;;;;;;;19.25;12.25;23.30;31.30;;;;;;111179;1238;49709;-66
2023/03/30 12:21:20;;;;;;;;;27.00;17.25;23.30;31.50;;;;;;111229;1240;50048;-67
2023/03/30 12:24:28;;;;;;;;;21.75;15.00;23.30;31.50;;;;;;111190;1243;45254;-67
2023/03/30 12:26:55;;;;;;;;;20.75;14.25;23.40;31.40;;;;;;110854;1248;56112;-68
2023/03/30 12:29:22;;;;;;;;;26.50;14.25;23.30;31.10;;;;;;111217;1238;53733;-64
2023/03/30 12:31:57;;;;;;;;;15.50;12.00;23.30;31.10;;;;;;111200;1240;49321;-62
2023/03/30 12:34:43;;;;;;;;;27.25;16.75;23.30;31.10;;;;;;111287;1243;49350;-62
2023/03/30 12:37:15;;;;;;;;;23.67;14.00;23.20;30.90;;;;;;111275;1244;45334;-59
2023/03/30 12:39:48;;;;;;;;;21.00;14.67;23.20;30.90;;;;;;111489;1242;56429;-62
2023/03/30 12:42:25;;;;;;;;;23.50;15.00;23.30;31.20;;;;;;111370;1243;54067;-62
2023/03/30 12:45:19;;;;;;;;;24.00;16.75;23.30;31.30;;;;;;111291;1243;49525;-62